createdAt,value
2023-02-11T00:01:14.242Z,5.10
2023-02-11T00:03:41.088Z,5.10
2023-02-11T00:06:09.339Z,5.10
2023-02-11T00:08:35.845Z,5.10
2023-02-11T00:11:02.370Z,5.00
2023-02-11T00:13:28.882Z,5.00
2023-02-11T00:15:55.366Z,5.00
2023-02-11T00:18:21.869Z,5.00
2023-02-11T00:20:48.357Z,5.00
2023-02-11T00:23:14.887Z,5.00
2023-02-11T00:25:41.415Z,5.00
2023-02-11T00:28:07.919Z,5.00
2023-02-11T00:30:34.548Z,5.00
2023-02-11T00:33:01.072Z,5.00
2023-02-11T00:35:27.623Z,5.00
2023-02-11T00:37:54.132Z,5.00
2023-02-11T00:40:20.639Z,4.90
2023-02-11T00:42:47.130Z,5.00
2023-02-11T00:45:13.632Z,5.00
2023-02-11T00:47:40.164Z,4.90
2023-02-11T00:50:06.691Z,4.90
2023-02-11T00:52:33.212Z,4.90
2023-02-11T00:54:59.751Z,4.90
2023-02-11T00:57:26.256Z,4.80
2023-02-11T00:59:52.767Z,4.80
2023-02-11T01:02:19.273Z,4.80
2023-02-11T01:04:45.806Z,4.80
2023-02-11T01:07:12.304Z,4.80
2023-02-11T01:09:39.021Z,4.80
2023-02-11T01:12:05.550Z,4.70
2023-02-11T01:14:32.070Z,4.80
2023-02-11T01:16:58.585Z,4.80
2023-02-11T01:19:25.137Z,4.70
2023-02-11T01:21:51.633Z,4.70
2023-02-11T01:24:18.203Z,4.70
2023-02-11T01:26:44.712Z,4.70
2023-02-11T01:29:11.209Z,4.70
2023-02-11T01:31:37.849Z,4.70
2023-02-11T01:34:04.401Z,4.70
2023-02-11T01:36:30.919Z,4.70
2023-02-11T01:38:57.405Z,4.70
2023-02-11T01:41:24.047Z,4.70
2023-02-11T01:43:50.546Z,4.80
2023-02-11T01:46:17.085Z,4.80
2023-02-11T01:48:43.654Z,4.80
2023-02-11T01:51:10.213Z,4.80
2023-02-11T01:53:55.524Z,4.80
2023-02-11T01:56:40.613Z,4.70
2023-02-11T01:59:07.185Z,4.80
2023-02-11T02:01:33.715Z,4.80
2023-02-11T02:04:00.305Z,4.80
2023-02-11T02:06:27.137Z,4.80
2023-02-11T02:08:53.629Z,4.80
2023-02-11T02:11:20.164Z,4.80
2023-02-11T02:13:46.676Z,4.80
2023-02-11T02:16:13.222Z,4.80
2023-02-11T02:18:39.719Z,4.80
2023-02-11T02:21:06.209Z,4.80
2023-02-11T02:23:32.734Z,4.80
2023-02-11T02:25:59.253Z,4.80
2023-02-11T02:28:25.837Z,4.80
2023-02-11T02:30:52.451Z,4.80
2023-02-11T02:33:22.950Z,4.70
2023-02-11T02:35:50.056Z,4.70
2023-02-11T02:38:16.697Z,4.70
2023-02-11T02:40:43.337Z,4.70
2023-02-11T02:43:09.818Z,4.60
2023-02-11T02:45:36.337Z,4.70
2023-02-11T02:48:02.867Z,4.70
2023-02-11T02:50:32.477Z,4.70
2023-02-11T02:52:58.959Z,4.70
2023-02-11T02:55:25.541Z,4.60
2023-02-11T02:57:52.109Z,4.60
2023-02-11T03:00:18.645Z,4.60
2023-02-11T03:02:46.009Z,4.60
2023-02-11T03:05:12.542Z,4.60
2023-02-11T03:07:39.036Z,4.60
2023-02-11T03:10:05.612Z,4.60
2023-02-11T03:12:32.481Z,4.60
2023-02-11T03:14:58.992Z,4.60
2023-02-11T03:17:25.473Z,4.60
2023-02-11T03:19:52.014Z,4.60
2023-02-11T03:22:18.736Z,4.50
2023-02-11T03:24:45.289Z,4.50
2023-02-11T03:27:11.863Z,4.50
2023-02-11T03:29:38.338Z,4.50
2023-02-11T03:32:05.069Z,4.60
2023-02-11T03:34:31.573Z,4.60
2023-02-11T03:36:58.241Z,4.60
2023-02-11T03:39:24.712Z,4.60
2023-02-11T03:41:51.220Z,4.60
2023-02-11T03:44:17.714Z,4.60
2023-02-11T03:46:44.210Z,4.60
2023-02-11T03:49:10.829Z,4.60
2023-02-11T03:51:37.315Z,4.60
2023-02-11T03:54:03.818Z,4.60
2023-02-11T03:56:30.310Z,4.50
2023-02-11T03:58:56.787Z,4.50
2023-02-11T04:01:23.385Z,4.50
2023-02-11T04:03:49.964Z,4.50
2023-02-11T04:06:16.477Z,4.60
2023-02-11T04:08:42.963Z,4.60
2023-02-11T04:11:09.453Z,4.60
2023-02-11T04:13:35.972Z,4.60
2023-02-11T04:16:02.519Z,4.60
2023-02-11T04:18:29.070Z,4.60
2023-02-11T04:20:55.608Z,4.60
2023-02-11T04:23:22.084Z,4.70
2023-02-11T04:25:49.044Z,4.70
2023-02-11T04:28:15.826Z,4.70
2023-02-11T04:30:42.423Z,4.70
2023-02-11T04:33:08.933Z,4.70
2023-02-11T04:35:35.437Z,4.70
2023-02-11T04:38:01.965Z,4.70
2023-02-11T04:40:28.543Z,4.70
2023-02-11T04:42:55.063Z,4.60
2023-02-11T04:45:21.553Z,4.60
2023-02-11T04:47:48.096Z,4.60
2023-02-11T04:50:14.638Z,4.60
2023-02-11T04:52:41.126Z,4.60
2023-02-11T04:55:07.614Z,4.50
2023-02-11T04:57:34.164Z,4.50
2023-02-11T05:00:00.674Z,4.40
2023-02-11T05:02:27.349Z,4.40
2023-02-11T05:04:53.914Z,4.30
2023-02-11T05:07:20.430Z,4.30
2023-02-11T05:09:46.951Z,4.30
2023-02-11T05:12:13.450Z,4.30
2023-02-11T05:14:39.960Z,4.30
2023-02-11T05:17:06.502Z,4.30
2023-02-11T05:19:32.993Z,4.30
2023-02-11T05:22:03.150Z,4.20
2023-02-11T05:24:30.149Z,4.20
2023-02-11T05:26:56.693Z,4.20
2023-02-11T05:29:23.176Z,4.20
2023-02-11T05:31:49.684Z,4.20
2023-02-11T05:34:16.210Z,4.20
2023-02-11T05:36:42.777Z,4.20
2023-02-11T05:39:09.294Z,4.20
2023-02-11T05:41:35.793Z,4.20
2023-02-11T05:44:02.304Z,4.20
2023-02-11T05:46:28.915Z,4.20
2023-02-11T05:48:56.576Z,4.10
2023-02-11T05:51:25.186Z,4.20
2023-02-11T05:53:51.700Z,4.20
2023-02-11T05:56:18.345Z,4.20
2023-02-11T05:58:44.878Z,4.20
2023-02-11T06:01:11.367Z,4.20
2023-02-11T06:03:37.933Z,4.10
2023-02-11T06:06:04.498Z,4.20
2023-02-11T06:08:31.030Z,4.10
2023-02-11T06:10:57.546Z,4.10
2023-02-11T06:13:24.050Z,4.10
2023-02-11T06:15:51.082Z,4.10
2023-02-11T06:18:17.801Z,4.10
2023-02-11T06:20:44.327Z,4.20
2023-02-11T06:23:11.018Z,4.20
2023-02-11T06:25:37.513Z,4.20
2023-02-11T06:28:04.208Z,4.20
2023-02-11T06:30:30.735Z,4.10
2023-02-11T06:32:57.324Z,4.10
2023-02-11T06:35:23.922Z,4.10
2023-02-11T06:37:50.484Z,4.10
2023-02-11T06:40:17.063Z,4.10
2023-02-11T06:42:43.822Z,4.20
2023-02-11T06:45:10.849Z,4.10
2023-02-11T06:47:37.359Z,4.20
2023-02-11T06:50:03.895Z,4.10
2023-02-11T06:52:30.442Z,4.20
2023-02-11T06:54:56.972Z,4.20
2023-02-11T06:57:23.469Z,4.20
2023-02-11T06:59:49.985Z,4.20
2023-02-11T07:02:18.467Z,4.20
2023-02-11T07:04:46.347Z,4.20
2023-02-11T07:07:12.881Z,4.30
2023-02-11T07:09:39.364Z,4.30
2023-02-11T07:12:05.930Z,4.30
2023-02-11T07:14:32.499Z,4.30
2023-02-11T07:16:59.025Z,4.30
2023-02-11T07:19:25.558Z,4.40
2023-02-11T07:21:52.061Z,4.30
2023-02-11T07:24:18.556Z,4.30
2023-02-11T07:26:45.137Z,4.30
2023-02-11T07:29:11.707Z,4.30
2023-02-11T07:31:38.307Z,4.30
2023-02-11T07:34:04.849Z,4.30
2023-02-11T07:36:31.946Z,4.40
2023-02-11T07:38:58.556Z,4.40
2023-02-11T07:41:25.086Z,4.40
2023-02-11T07:43:51.653Z,4.40
2023-02-11T07:46:18.200Z,4.40
2023-02-11T07:48:44.722Z,4.50
2023-02-11T07:51:11.236Z,4.50
2023-02-11T07:53:37.840Z,4.50
2023-02-11T07:56:04.525Z,4.60
2023-02-11T07:58:31.061Z,4.60
2023-02-11T08:00:57.583Z,4.60
2023-02-11T08:03:24.077Z,4.60
2023-02-11T08:05:50.906Z,4.60
2023-02-11T08:08:17.656Z,4.70
2023-02-11T08:10:44.138Z,4.60
2023-02-11T08:13:10.651Z,4.70
2023-02-11T08:15:37.158Z,4.70
2023-02-11T08:18:03.759Z,4.70
2023-02-11T08:20:30.345Z,4.70
2023-02-11T08:22:56.858Z,4.70
2023-02-11T08:25:23.366Z,4.70
2023-02-11T08:27:49.888Z,4.70
2023-02-11T08:30:16.417Z,4.80
2023-02-11T08:32:42.952Z,4.80
2023-02-11T08:35:12.252Z,4.80
2023-02-11T08:37:38.825Z,4.80
2023-02-11T08:40:05.347Z,4.80
2023-02-11T08:42:31.872Z,4.80
2023-02-11T08:44:58.372Z,4.90
2023-02-11T08:47:24.973Z,4.90
2023-02-11T08:49:51.483Z,4.80
2023-02-11T08:52:18.004Z,4.90
2023-02-11T08:54:44.575Z,4.90
2023-02-11T08:57:11.064Z,4.90
2023-02-11T08:59:39.882Z,4.90
2023-02-11T09:02:06.417Z,4.90
2023-02-11T09:04:32.957Z,4.90
2023-02-11T09:06:59.488Z,4.90
2023-02-11T09:09:25.981Z,4.90
2023-02-11T09:11:57.192Z,5.00
2023-02-11T09:14:23.699Z,5.00
2023-02-11T09:16:50.286Z,5.00
2023-02-11T09:19:16.997Z,5.00
2023-02-11T09:21:43.496Z,5.00
2023-02-11T09:24:10.109Z,5.00
2023-02-11T09:26:36.657Z,5.00
2023-02-11T09:29:03.164Z,5.10
2023-02-11T09:31:29.824Z,5.00
2023-02-11T09:33:56.450Z,5.10
2023-02-11T09:36:22.917Z,5.10
2023-02-11T09:38:49.437Z,5.10
2023-02-11T09:41:15.922Z,5.10
2023-02-11T09:43:42.441Z,5.10
2023-02-11T09:46:08.934Z,5.20
2023-02-11T09:48:35.436Z,5.20
2023-02-11T09:51:01.914Z,5.40
2023-02-11T09:53:28.479Z,5.60
2023-02-11T09:55:59.463Z,5.80
2023-02-11T09:58:25.975Z,5.70
2023-02-11T10:00:52.809Z,5.70
2023-02-11T10:03:19.462Z,5.60
2023-02-11T10:05:46.012Z,5.60
2023-02-11T10:08:14.621Z,5.60
2023-02-11T10:10:42.414Z,5.70
2023-02-11T10:13:08.955Z,5.60
2023-02-11T10:15:35.465Z,5.60
2023-02-11T10:18:02.136Z,5.60
2023-02-11T10:20:28.680Z,5.60
2023-02-11T10:22:55.229Z,5.60
2023-02-11T10:25:21.776Z,5.60
2023-02-11T10:27:48.329Z,5.70
2023-02-11T10:30:14.806Z,5.70
2023-02-11T10:32:41.341Z,5.70
2023-02-11T10:35:07.844Z,5.70
2023-02-11T10:37:34.319Z,5.70
2023-02-11T10:40:00.853Z,5.70
2023-02-11T10:42:27.366Z,5.70
2023-02-11T10:44:53.900Z,5.70
2023-02-11T10:47:20.366Z,5.80
2023-02-11T10:49:47.017Z,5.80
2023-02-11T10:52:13.534Z,5.80
2023-02-11T10:54:40.030Z,5.80
2023-02-11T10:57:07.385Z,5.80
2023-02-11T10:59:33.962Z,5.80
2023-02-11T11:02:00.796Z,5.80
2023-02-11T11:04:27.357Z,5.80
2023-02-11T11:06:53.858Z,5.80
2023-02-11T11:09:20.362Z,5.70
2023-02-11T11:11:46.840Z,5.80
2023-02-11T11:14:13.348Z,5.80
2023-02-11T11:16:39.821Z,5.80
2023-02-11T11:19:06.320Z,5.80
2023-02-11T11:21:33.011Z,5.80
2023-02-11T11:23:59.537Z,5.80
2023-02-11T11:26:26.072Z,5.80
2023-02-11T11:28:52.570Z,5.80
2023-02-11T11:31:19.380Z,5.80
2023-02-11T11:33:46.056Z,5.90
2023-02-11T11:36:12.560Z,5.90
2023-02-11T11:38:39.429Z,5.90
2023-02-11T11:41:05.898Z,5.90
2023-02-11T11:43:32.396Z,6.00
2023-02-11T11:45:58.899Z,6.00
2023-02-11T11:48:25.390Z,6.00
2023-02-11T11:50:52.133Z,6.00
2023-02-11T11:53:18.825Z,6.00
2023-02-11T11:55:45.420Z,6.00
2023-02-11T11:58:11.942Z,6.00
2023-02-11T12:00:38.627Z,5.90
2023-02-11T12:03:05.404Z,5.90
2023-02-11T12:05:31.909Z,5.90
2023-02-11T12:07:58.455Z,5.90
2023-02-11T12:10:24.993Z,5.90
2023-02-11T12:12:51.515Z,5.90
2023-02-11T12:15:18.043Z,5.80
2023-02-11T12:17:44.559Z,5.80
2023-02-11T12:20:12.950Z,5.80
2023-02-11T12:22:39.532Z,5.80
2023-02-11T12:25:06.028Z,5.80
2023-02-11T12:27:32.554Z,5.70
2023-02-11T12:29:59.057Z,5.70
2023-02-11T12:32:25.595Z,5.70
2023-02-11T12:34:52.244Z,5.70
2023-02-11T12:37:18.860Z,5.70
2023-02-11T12:39:45.925Z,5.70
2023-02-11T12:42:31.200Z,5.80
2023-02-11T12:44:57.734Z,5.80
2023-02-11T12:47:24.231Z,5.80
2023-02-11T12:49:50.759Z,5.80
2023-02-11T12:52:17.248Z,5.80
2023-02-11T12:54:43.802Z,5.80
2023-02-11T12:57:11.069Z,5.80
2023-02-11T12:59:37.562Z,5.80
2023-02-11T13:02:04.079Z,5.90
2023-02-11T13:04:30.811Z,5.90
2023-02-11T13:06:57.318Z,5.90
2023-02-11T13:09:23.851Z,5.90
2023-02-11T13:11:51.962Z,5.90
2023-02-11T13:14:18.543Z,5.90
2023-02-11T13:16:45.095Z,5.90
2023-02-11T13:19:11.585Z,5.90
2023-02-11T13:21:38.106Z,5.90
2023-02-11T13:24:05.442Z,5.90
2023-02-11T13:26:32.043Z,5.90
2023-02-11T13:28:58.544Z,6.00
2023-02-11T13:31:27.556Z,6.00
2023-02-11T13:33:54.168Z,5.90
2023-02-11T13:36:20.725Z,6.00
2023-02-11T13:38:47.222Z,5.90
2023-02-11T13:41:13.730Z,5.90
2023-02-11T13:43:40.243Z,6.00
2023-02-11T13:46:06.931Z,6.00
2023-02-11T13:48:33.513Z,6.00
2023-02-11T13:51:00.087Z,6.00
2023-02-11T13:53:27.361Z,6.00
2023-02-11T13:55:53.870Z,6.00
2023-02-11T13:58:20.386Z,5.90
2023-02-11T14:00:47.198Z,5.90
2023-02-11T14:03:32.432Z,5.90
2023-02-11T14:06:17.655Z,6.00
2023-02-11T14:08:59.424Z,5.90
2023-02-11T14:11:26.469Z,5.90
2023-02-11T14:13:53.001Z,6.00
2023-02-11T14:16:36.437Z,5.90
2023-02-11T14:19:03.749Z,5.90
2023-02-11T14:21:30.655Z,5.90
2023-02-11T14:23:57.157Z,5.90
2023-02-11T14:26:23.751Z,5.90
2023-02-11T14:28:50.255Z,5.90
2023-02-11T14:31:16.866Z,5.90
2023-02-11T14:33:43.398Z,5.80
2023-02-11T14:36:09.901Z,5.90
2023-02-11T14:38:36.427Z,5.90
2023-02-11T14:41:02.992Z,5.90
2023-02-11T14:43:29.770Z,5.90
2023-02-11T14:45:56.355Z,5.90
2023-02-11T14:48:23.024Z,5.90
2023-02-11T14:50:49.977Z,5.90
2023-02-11T14:53:16.651Z,5.90
2023-02-11T14:55:43.203Z,5.90
2023-02-11T14:58:09.743Z,5.90
2023-02-11T15:00:36.293Z,5.80
2023-02-11T15:03:02.898Z,5.80
2023-02-11T15:05:29.832Z,5.90
2023-02-11T15:07:56.449Z,5.90
2023-02-11T15:10:22.983Z,5.90
2023-02-11T15:12:49.838Z,5.90
2023-02-11T15:15:16.337Z,5.90
2023-02-11T15:17:42.818Z,5.90
2023-02-11T15:20:09.358Z,5.80
2023-02-11T15:22:37.317Z,5.90
2023-02-11T15:25:04.125Z,5.90
2023-02-11T15:27:30.632Z,5.90
2023-02-11T15:29:57.128Z,5.80
2023-02-11T15:32:23.862Z,5.80
2023-02-11T15:34:50.616Z,5.80
2023-02-11T15:37:17.129Z,5.80
2023-02-11T15:39:43.708Z,5.80
2023-02-11T15:42:10.200Z,5.80
2023-02-11T15:44:38.011Z,5.80
2023-02-11T15:47:04.487Z,5.90
2023-02-11T15:49:31.044Z,5.90
2023-02-11T15:51:57.550Z,5.90
2023-02-11T15:54:26.552Z,5.90
2023-02-11T15:56:55.272Z,5.90
2023-02-11T15:59:21.982Z,5.90
2023-02-11T16:01:48.740Z,5.90
2023-02-11T16:04:15.306Z,5.90
2023-02-11T16:06:41.896Z,5.90
2023-02-11T16:09:08.457Z,6.00
2023-02-11T16:11:34.956Z,6.00
2023-02-11T16:14:01.531Z,6.00
2023-02-11T16:16:28.061Z,6.00
2023-02-11T16:19:04.840Z,6.10
2023-02-11T16:21:38.786Z,6.10
2023-02-11T16:24:06.567Z,6.10
2023-02-11T16:26:33.131Z,6.10
2023-02-11T16:28:59.624Z,6.10
2023-02-11T16:31:26.258Z,6.20
2023-02-11T16:33:52.792Z,6.20
2023-02-11T16:36:19.311Z,6.20
2023-02-11T16:38:46.018Z,6.20
2023-02-11T16:41:12.745Z,6.20
2023-02-11T16:43:39.884Z,6.20
2023-02-11T16:46:06.445Z,6.20
2023-02-11T16:48:33.288Z,6.20
2023-02-11T16:51:00.912Z,6.20
2023-02-11T16:53:27.439Z,6.20
2023-02-11T16:55:54.000Z,6.20
2023-02-11T16:58:20.537Z,6.30
2023-02-11T17:00:47.128Z,6.30
2023-02-11T17:03:13.646Z,6.30
2023-02-11T17:05:57.848Z,6.30
2023-02-11T17:08:24.598Z,6.30
2023-02-11T17:10:51.429Z,6.30
2023-02-11T17:13:18.093Z,6.30
2023-02-11T17:15:44.637Z,6.30
2023-02-11T17:18:11.154Z,6.30
2023-02-11T17:20:37.730Z,6.30
2023-02-11T17:23:04.214Z,6.30
2023-02-11T17:25:31.115Z,6.30
2023-02-11T17:27:57.656Z,6.30
2023-02-11T17:30:24.948Z,6.40
2023-02-11T17:32:51.477Z,6.40
2023-02-11T17:35:17.999Z,6.40
2023-02-11T17:37:44.572Z,6.40
2023-02-11T17:40:11.097Z,6.40
2023-02-11T17:42:37.648Z,6.40
2023-02-11T17:45:04.191Z,6.40
2023-02-11T17:47:30.690Z,6.40
2023-02-11T17:49:57.651Z,6.50
2023-02-11T17:52:24.725Z,6.40
2023-02-11T17:54:51.360Z,6.50
2023-02-11T17:57:17.974Z,6.50
2023-02-11T17:59:44.465Z,6.50
2023-02-11T18:02:11.009Z,6.50
2023-02-11T18:04:37.552Z,6.50
2023-02-11T18:07:04.085Z,6.50
2023-02-11T18:09:30.605Z,6.50
2023-02-11T18:11:58.279Z,6.50
2023-02-11T18:14:24.765Z,6.50
2023-02-11T18:16:51.452Z,6.50
2023-02-11T18:19:18.011Z,6.40
2023-02-11T18:21:44.626Z,6.40
2023-02-11T18:24:11.550Z,6.50
2023-02-11T18:26:38.071Z,6.50
2023-02-11T18:29:06.014Z,6.40
2023-02-11T18:31:32.717Z,6.40
2023-02-11T18:33:59.245Z,6.40
2023-02-11T18:36:25.853Z,6.40
2023-02-11T18:38:53.923Z,6.40
2023-02-11T18:41:20.414Z,6.40
2023-02-11T18:43:46.937Z,6.50
2023-02-11T18:46:13.548Z,6.50
2023-02-11T18:48:40.105Z,6.50
2023-02-11T18:51:06.618Z,6.50
2023-02-11T18:53:33.100Z,6.50
2023-02-11T18:55:59.619Z,6.50
2023-02-11T18:58:26.148Z,6.50
2023-02-11T19:00:52.669Z,6.50
2023-02-11T19:03:19.225Z,6.50
2023-02-11T19:05:45.727Z,6.50
2023-02-11T19:08:12.235Z,6.50
2023-02-11T19:10:38.768Z,6.50
2023-02-11T19:13:05.274Z,6.50
2023-02-11T19:15:31.870Z,6.50
2023-02-11T19:17:58.374Z,6.50
2023-02-11T19:20:24.879Z,6.60
2023-02-11T19:22:51.415Z,6.60
2023-02-11T19:25:17.965Z,6.60
2023-02-11T19:27:44.496Z,6.60
2023-02-11T19:30:11.013Z,6.60
2023-02-11T19:32:37.501Z,6.60
2023-02-11T19:35:04.167Z,6.60
2023-02-11T19:37:30.724Z,6.60
2023-02-11T19:39:57.209Z,6.60
2023-02-11T19:42:25.890Z,6.60
2023-02-11T19:44:53.919Z,6.60
2023-02-11T19:47:26.606Z,6.60
2023-02-11T19:49:53.083Z,6.60
2023-02-11T19:52:19.566Z,6.60
2023-02-11T19:54:46.038Z,6.60
2023-02-11T19:57:12.541Z,6.60
2023-02-11T19:59:39.086Z,6.60
2023-02-11T20:02:05.585Z,6.60
2023-02-11T20:04:32.119Z,6.60
2023-02-11T20:06:58.660Z,6.60
2023-02-11T20:09:26.436Z,6.60
2023-02-11T20:11:52.960Z,6.60
2023-02-11T20:14:19.525Z,6.60
2023-02-11T20:16:49.614Z,6.60
2023-02-11T20:19:17.798Z,6.60
2023-02-11T20:21:46.718Z,6.60
2023-02-11T20:24:13.603Z,6.60
2023-02-11T20:26:43.422Z,6.60
2023-02-11T20:29:09.952Z,6.60
2023-02-11T20:31:36.582Z,6.60
2023-02-11T20:34:03.144Z,6.60
2023-02-11T20:36:34.031Z,6.60
2023-02-11T20:39:00.530Z,6.60
2023-02-11T20:41:27.906Z,6.60
2023-02-11T20:43:54.521Z,6.60
2023-02-11T20:46:21.065Z,6.60
2023-02-11T20:48:47.614Z,6.60
2023-02-11T20:51:14.107Z,6.50
2023-02-11T20:53:40.646Z,6.60
2023-02-11T20:56:07.242Z,6.60
2023-02-11T20:58:33.752Z,6.50
2023-02-11T21:01:00.259Z,6.60
2023-02-11T21:03:26.786Z,6.60
2023-02-11T21:05:53.690Z,6.60
2023-02-11T21:08:20.321Z,6.60
2023-02-11T21:10:46.857Z,6.60
2023-02-11T21:13:13.368Z,6.60
2023-02-11T21:15:39.904Z,6.60
2023-02-11T21:18:06.393Z,6.60
2023-02-11T21:20:32.875Z,6.50
2023-02-11T21:22:59.366Z,6.50
2023-02-11T21:25:26.228Z,6.50
2023-02-11T21:27:52.736Z,6.60
2023-02-11T21:30:19.218Z,6.50
2023-02-11T21:32:45.735Z,6.50
2023-02-11T21:35:12.235Z,6.50
2023-02-11T21:37:38.788Z,6.50
2023-02-11T21:40:05.271Z,6.50
2023-02-11T21:42:31.890Z,6.40
2023-02-11T21:44:58.409Z,6.50
2023-02-11T21:47:24.911Z,6.40
2023-02-11T21:49:51.445Z,6.40
2023-02-11T21:52:17.954Z,6.40
2023-02-11T21:54:44.467Z,6.40
2023-02-11T21:57:11.007Z,6.40
2023-02-11T21:59:37.476Z,6.40
2023-02-11T22:02:04.030Z,6.40
2023-02-11T22:04:30.754Z,6.40
2023-02-11T22:06:57.267Z,6.40
2023-02-11T22:09:23.764Z,6.40
2023-02-11T22:11:50.624Z,6.30
2023-02-11T22:14:17.275Z,6.30
2023-02-11T22:16:43.889Z,6.30
2023-02-11T22:19:10.521Z,6.30
2023-02-11T22:21:37.024Z,6.30
2023-02-11T22:24:03.603Z,6.40
2023-02-11T22:26:30.098Z,6.40
2023-02-11T22:28:56.632Z,6.40
2023-02-11T22:31:23.849Z,6.40
2023-02-11T22:33:50.427Z,6.40
2023-02-11T22:36:16.962Z,6.40
2023-02-11T22:38:43.502Z,6.40
2023-02-11T22:41:10.023Z,6.40
2023-02-11T22:43:36.540Z,6.40
2023-02-11T22:46:03.179Z,6.40
2023-02-11T22:48:29.765Z,6.50
2023-02-11T22:50:56.356Z,6.50
2023-02-11T22:53:25.413Z,6.50
2023-02-11T22:55:52.094Z,6.50
2023-02-11T22:58:18.808Z,6.50
2023-02-11T23:00:45.401Z,6.60
2023-02-11T23:03:11.933Z,6.60
2023-02-11T23:05:38.886Z,6.60
2023-02-11T23:08:05.402Z,6.60
2023-02-11T23:10:32.121Z,6.60
2023-02-11T23:12:58.613Z,6.50
2023-02-11T23:15:25.131Z,6.60
2023-02-11T23:17:51.614Z,6.60
2023-02-11T23:20:18.102Z,6.60
2023-02-11T23:22:44.668Z,6.50
2023-02-11T23:25:11.150Z,6.60
2023-02-11T23:27:37.679Z,6.60
2023-02-11T23:30:04.482Z,6.50
2023-02-11T23:32:31.113Z,6.50
2023-02-11T23:34:57.780Z,6.60
2023-02-11T23:37:24.252Z,6.50
2023-02-11T23:39:50.821Z,6.50
2023-02-11T23:42:17.455Z,6.50
2023-02-11T23:44:44.268Z,6.50
2023-02-11T23:47:10.774Z,6.50
2023-02-11T23:49:37.265Z,6.50
2023-02-11T23:52:03.826Z,6.60
2023-02-11T23:54:30.367Z,6.50
2023-02-11T23:56:56.856Z,6.50
2023-02-11T23:59:23.460Z,6.50
